FYG32L LOWW-ELLX
Flight info
| Callsign | FYG32L |
|---|---|
| Flight time | N/A |
| Altitude | 34000 |
| Route | MEDIX DCT RENKA/N0455F380 L610 STAUB/N0422F240 L610 AMOSA Z104 MISGI T894 BITBU Z110 BETEX |
| Aircraft | CL60/M-SBDE1E2E3FGHIJ1J4J5J7M3RWXYZ/LB1V1D1 |
Departure
| Time | 2026-04-30 19:39 |
|---|---|
| Airport | Vienna International Airport (LOWW) |
Arrival
| Time | N/A |
|---|---|
| Airport | Luxembourg-Findel International Airport (ELLX) |
| Time | Latitude | Longitude | Altitude | Speed | Heading |
|---|---|---|---|---|---|
| 2026-04-30 19:22 | 48.12715 | 16.53630 | 564 ft | 0 kts | 296° |
| 2026-04-30 19:31 | 48.12721 | 16.53610 | 564 ft | 4 kts | 288° |
| 2026-04-30 19:31 | 48.12715 | 16.53566 | 564 ft | 6 kts | 226° |
| 2026-04-30 19:31 | 48.12653 | 16.53572 | 566 ft | 6 kts | 185° |
| 2026-04-30 19:32 | 48.12603 | 16.53543 | 567 ft | 9 kts | 208° |
| 2026-04-30 19:32 | 48.12558 | 16.53509 | 567 ft | 7 kts | 205° |
| 2026-04-30 19:32 | 48.12502 | 16.53502 | 569 ft | 7 kts | 179° |
| 2026-04-30 19:32 | 48.12445 | 16.53501 | 569 ft | 9 kts | 146° |
| 2026-04-30 19:33 | 48.12403 | 16.53606 | 569 ft | 13 kts | 116° |
| 2026-04-30 19:33 | 48.12352 | 16.53767 | 569 ft | 21 kts | 115° |
| 2026-04-30 19:33 | 48.12281 | 16.53981 | 569 ft | 24 kts | 118° |
| 2026-04-30 19:33 | 48.12206 | 16.54224 | 568 ft | 27 kts | 117° |
| 2026-04-30 19:34 | 48.12123 | 16.54477 | 572 ft | 23 kts | 114° |
| 2026-04-30 19:34 | 48.12049 | 16.54699 | 578 ft | 24 kts | 116° |
| 2026-04-30 19:34 | 48.11930 | 16.55059 | 580 ft | 11 kts | 115° |
| 2026-04-30 19:35 | 48.11905 | 16.55136 | 581 ft | 9 kts | 117° |
| 2026-04-30 19:35 | 48.11872 | 16.55237 | 582 ft | 12 kts | 115° |
| 2026-04-30 19:35 | 48.11837 | 16.55360 | 582 ft | 14 kts | 115° |
| 2026-04-30 19:35 | 48.11784 | 16.55510 | 582 ft | 18 kts | 122° |
| 2026-04-30 19:36 | 48.11729 | 16.55683 | 582 ft | 14 kts | 115° |
| 2026-04-30 19:36 | 48.11684 | 16.55812 | 582 ft | 15 kts | 117° |
| 2026-04-30 19:36 | 48.11624 | 16.56001 | 585 ft | 11 kts | 116° |
| 2026-04-30 19:37 | 48.11594 | 16.56096 | 587 ft | 7 kts | 116° |
| 2026-04-30 19:37 | 48.11566 | 16.56175 | 589 ft | 9 kts | 118° |
| 2026-04-30 19:37 | 48.11514 | 16.56253 | 590 ft | 11 kts | 143° |
| 2026-04-30 19:37 | 48.11442 | 16.56325 | 592 ft | 10 kts | 149° |
| 2026-04-30 19:38 | 48.11411 | 16.56350 | 592 ft | 5 kts | 160° |
| 2026-04-30 19:38 | 48.11360 | 16.56360 | 592 ft | 9 kts | 190° |
| 2026-04-30 19:38 | 48.11325 | 16.56282 | 591 ft | 11 kts | 281° |
| 2026-04-30 19:38 | 48.11330 | 16.56257 | 590 ft | 0 kts | 294° |
| 2026-04-30 19:39 | 48.11379 | 16.56105 | 588 ft | 66 kts | 296° |
| 2026-04-30 19:39 | 48.11745 | 16.54980 | 629 ft | 162 kts | 296° |
| 2026-04-30 19:39 | 48.12241 | 16.53326 | 1376 ft | 189 kts | 293° |
| 2026-04-30 19:39 | 48.12309 | 16.51308 | 2421 ft | 210 kts | 259° |
| 2026-04-30 19:40 | 48.11914 | 16.49218 | 3473 ft | 217 kts | 253° |
| 2026-04-30 19:40 | 48.11454 | 16.47100 | 4456 ft | 223 kts | 257° |
| 2026-04-30 19:40 | 48.10981 | 16.44859 | 5051 ft | 226 kts | 254° |
| 2026-04-30 19:40 | 48.10496 | 16.42631 | 5660 ft | 226 kts | 256° |
| 2026-04-30 19:41 | 48.10050 | 16.40278 | 6367 ft | 254 kts | 257° |
| 2026-04-30 19:41 | 48.09565 | 16.37654 | 7296 ft | 277 kts | 261° |
| 2026-04-30 19:41 | 48.09465 | 16.34755 | 8404 ft | 283 kts | 276° |
| 2026-04-30 19:41 | 48.09556 | 16.31774 | 9403 ft | 295 kts | 276° |
| 2026-04-30 19:42 | 48.09644 | 16.28738 | 10275 ft | 299 kts | 277° |
| 2026-04-30 19:42 | 48.09848 | 16.25663 | 11091 ft | 301 kts | 281° |
| 2026-04-30 19:42 | 48.10057 | 16.22525 | 11836 ft | 307 kts | 277° |
| 2026-04-30 19:42 | 48.10345 | 16.19400 | 12593 ft | 303 kts | 293° |
| 2026-04-30 19:43 | 48.11072 | 16.16414 | 13342 ft | 319 kts | 296° |
| 2026-04-30 19:43 | 48.11875 | 16.13218 | 14092 ft | 341 kts | 296° |
| 2026-04-30 19:43 | 48.12705 | 16.09870 | 14843 ft | 352 kts | 296° |
| 2026-04-30 19:44 | 48.14408 | 16.02952 | 16333 ft | 359 kts | 296° |
| 2026-04-30 19:44 | 48.15266 | 15.99452 | 17081 ft | 363 kts | 296° |
| 2026-04-30 19:44 | 48.15487 | 15.98550 | 17279 ft | 364 kts | 296° |
| 2026-04-30 19:44 | 48.16354 | 15.95010 | 18020 ft | 369 kts | 296° |
| 2026-04-30 19:45 | 48.17237 | 15.91396 | 18776 ft | 373 kts | 297° |
| 2026-04-30 19:45 | 48.18132 | 15.87725 | 19537 ft | 377 kts | 297° |
| 2026-04-30 19:45 | 48.19021 | 15.84074 | 20284 ft | 383 kts | 297° |
| 2026-04-30 19:45 | 48.19944 | 15.80287 | 21048 ft | 394 kts | 297° |
| 2026-04-30 19:46 | 48.20891 | 15.76391 | 21816 ft | 404 kts | 297° |
| 2026-04-30 19:46 | 48.21871 | 15.72359 | 22417 ft | 417 kts | 298° |
| 2026-04-30 19:46 | 48.22856 | 15.68290 | 23085 ft | 426 kts | 297° |
| 2026-04-30 19:46 | 48.23879 | 15.64049 | 23747 ft | 436 kts | 298° |
| 2026-04-30 19:47 | 48.24906 | 15.59780 | 24502 ft | 441 kts | 298° |
| 2026-04-30 19:47 | 48.25599 | 15.56895 | 24996 ft | 444 kts | 298° |
| 2026-04-30 19:47 | 48.26985 | 15.51108 | 25946 ft | 450 kts | 298° |
| 2026-04-30 19:47 | 48.28053 | 15.46639 | 26571 ft | 455 kts | 298° |
| 2026-04-30 19:48 | 48.29104 | 15.42205 | 27173 ft | 461 kts | 297° |
| 2026-04-30 19:48 | 48.29989 | 15.37511 | 27714 ft | 472 kts | 292° |
| 2026-04-30 19:48 | 48.30764 | 15.32677 | 28251 ft | 477 kts | 291° |
| 2026-04-30 19:48 | 48.31544 | 15.27827 | 28723 ft | 482 kts | 292° |
| 2026-04-30 19:49 | 48.32335 | 15.22901 | 29161 ft | 487 kts | 292° |
| 2026-04-30 19:49 | 48.33923 | 15.12950 | 30129 ft | 493 kts | 292° |
| 2026-04-30 19:49 | 48.34642 | 15.08417 | 30620 ft | 494 kts | 292° |
| 2026-04-30 19:50 | 48.35284 | 15.04359 | 31069 ft | 493 kts | 292° |
| 2026-04-30 19:50 | 48.36077 | 14.99323 | 31633 ft | 491 kts | 292° |
| 2026-04-30 19:50 | 48.36858 | 14.94350 | 32146 ft | 489 kts | 292° |
| 2026-04-30 19:50 | 48.37640 | 14.89364 | 32655 ft | 487 kts | 292° |
| 2026-04-30 19:51 | 48.38414 | 14.84412 | 33163 ft | 485 kts | 292° |
| 2026-04-30 19:51 | 48.39183 | 14.79476 | 33677 ft | 482 kts | 292° |
| 2026-04-30 19:51 | 48.39943 | 14.74591 | 34150 ft | 481 kts | 292° |
| 2026-04-30 19:51 | 48.40701 | 14.69721 | 34354 ft | 486 kts | 292° |
| 2026-04-30 19:52 | 48.42250 | 14.59731 | 34391 ft | 494 kts | 292° |
| 2026-04-30 19:52 | 48.43798 | 14.49652 | 34395 ft | 495 kts | 291° |
| 2026-04-30 19:53 | 48.45349 | 14.39506 | 34389 ft | 501 kts | 291° |
| 2026-04-30 19:53 | 48.46913 | 14.29201 | 34385 ft | 503 kts | 290° |
| 2026-04-30 19:54 | 48.48458 | 14.18946 | 34381 ft | 504 kts | 291° |
| 2026-04-30 19:54 | 48.49993 | 14.08689 | 34384 ft | 504 kts | 290° |
| 2026-04-30 19:55 | 48.51524 | 13.98402 | 34387 ft | 505 kts | 291° |
| 2026-04-30 19:55 | 48.53098 | 13.88059 | 34385 ft | 501 kts | 294° |
| 2026-04-30 19:56 | 48.55576 | 13.78547 | 34377 ft | 486 kts | 304° |
| 2026-04-30 19:56 | 48.58450 | 13.69284 | 34387 ft | 487 kts | 304° |
| 2026-04-30 19:57 | 48.61322 | 13.59970 | 34383 ft | 488 kts | 304° |
| 2026-04-30 19:57 | 48.64155 | 13.50750 | 34391 ft | 487 kts | 304° |
| 2026-04-30 19:58 | 48.67001 | 13.41450 | 34389 ft | 486 kts | 304° |
| 2026-04-30 19:58 | 48.69809 | 13.32239 | 34386 ft | 486 kts | 303° |
| 2026-04-30 19:59 | 48.72637 | 13.22926 | 34393 ft | 486 kts | 303° |
| 2026-04-30 20:00 | 48.76862 | 13.08949 | 34394 ft | 487 kts | 303° |
| 2026-04-30 20:00 | 48.79657 | 12.99658 | 34390 ft | 487 kts | 303° |
| 2026-04-30 20:01 | 48.83847 | 12.85660 | 34388 ft | 486 kts | 303° |
| 2026-04-30 20:01 | 48.86613 | 12.76376 | 34389 ft | 486 kts | 303° |
| 2026-04-30 20:02 | 48.90774 | 12.62338 | 34382 ft | 485 kts | 303° |
| 2026-04-30 20:03 | 48.94924 | 12.48260 | 34377 ft | 484 kts | 303° |
| 2026-04-30 20:03 | 48.97670 | 12.38899 | 34374 ft | 484 kts | 302° |
| 2026-04-30 20:04 | 49.00432 | 12.29449 | 34384 ft | 484 kts | 302° |
| 2026-04-30 20:05 | 49.04535 | 12.15341 | 34390 ft | 485 kts | 301° |
| 2026-04-30 20:05 | 49.08599 | 12.01281 | 34389 ft | 484 kts | 301° |
| 2026-04-30 20:06 | 49.11292 | 11.91922 | 34387 ft | 485 kts | 301° |
| 2026-04-30 20:06 | 49.13988 | 11.82512 | 34388 ft | 484 kts | 301° |
| 2026-04-30 20:07 | 49.16674 | 11.73099 | 34389 ft | 484 kts | 301° |
| 2026-04-30 20:08 | 49.20691 | 11.58959 | 34370 ft | 485 kts | 301° |
| 2026-04-30 20:08 | 49.23366 | 11.49494 | 34361 ft | 484 kts | 301° |
| 2026-04-30 20:09 | 49.26136 | 11.40179 | 34360 ft | 481 kts | 303° |
| 2026-04-30 20:09 | 49.30373 | 11.26320 | 34371 ft | 482 kts | 302° |
| 2026-04-30 20:10 | 49.34616 | 11.12338 | 34381 ft | 482 kts | 301° |
| 2026-04-30 20:11 | 49.38829 | 10.98357 | 34383 ft | 482 kts | 301° |
| 2026-04-30 20:11 | 49.41620 | 10.89043 | 34387 ft | 481 kts | 301° |
| 2026-04-30 20:12 | 49.45777 | 10.75107 | 34373 ft | 481 kts | 301° |
| 2026-04-30 20:13 | 49.48572 | 10.65688 | 34372 ft | 481 kts | 301° |
| 2026-04-30 20:13 | 49.51320 | 10.56387 | 34377 ft | 481 kts | 301° |
| 2026-04-30 20:14 | 49.54079 | 10.47014 | 34371 ft | 481 kts | 300° |
| 2026-04-30 20:14 | 49.56821 | 10.37660 | 34369 ft | 481 kts | 300° |
| 2026-04-30 20:15 | 49.59573 | 10.28235 | 34369 ft | 481 kts | 299° |
| 2026-04-30 20:15 | 49.62306 | 10.18841 | 34360 ft | 481 kts | 299° |
| 2026-04-30 20:16 | 49.65030 | 10.09438 | 34363 ft | 482 kts | 299° |
| 2026-04-30 20:16 | 49.67732 | 10.00076 | 34351 ft | 482 kts | 299° |
| 2026-04-30 20:17 | 49.70454 | 9.90605 | 34354 ft | 481 kts | 299° |
| 2026-04-30 20:17 | 49.73167 | 9.81130 | 34349 ft | 481 kts | 299° |
| 2026-04-30 20:18 | 49.75714 | 9.72197 | 34350 ft | 480 kts | 299° |
| 2026-04-30 20:18 | 49.77849 | 9.64683 | 34348 ft | 480 kts | 299° |
| 2026-04-30 20:19 | 49.80532 | 9.55211 | 34362 ft | 481 kts | 298° |
| 2026-04-30 20:19 | 49.83192 | 9.45777 | 34348 ft | 481 kts | 298° |
| 2026-04-30 20:20 | 49.85860 | 9.36266 | 34344 ft | 480 kts | 298° |
| 2026-04-30 20:20 | 49.88057 | 9.26410 | 34351 ft | 484 kts | 292° |
| 2026-04-30 20:21 | 49.90109 | 9.16493 | 34354 ft | 484 kts | 292° |
| 2026-04-30 20:21 | 49.91927 | 9.06455 | 34357 ft | 489 kts | 284° |
| 2026-04-30 20:22 | 49.92344 | 8.95917 | 34347 ft | 493 kts | 274° |
| 2026-04-30 20:22 | 49.93196 | 8.85495 | 34351 ft | 485 kts | 288° |
| 2026-04-30 20:23 | 49.95432 | 8.75745 | 34358 ft | 481 kts | 296° |
| 2026-04-30 20:23 | 49.97899 | 8.66091 | 34351 ft | 482 kts | 296° |
| 2026-04-30 20:24 | 50.00356 | 8.56416 | 34352 ft | 483 kts | 296° |
| 2026-04-30 20:24 | 50.02816 | 8.46681 | 34358 ft | 483 kts | 295° |
| 2026-04-30 20:25 | 50.06493 | 8.32042 | 34352 ft | 484 kts | 294° |
| 2026-04-30 20:26 | 50.10158 | 8.17348 | 34352 ft | 485 kts | 294° |
| 2026-04-30 20:26 | 50.13800 | 8.02646 | 34341 ft | 485 kts | 294° |
| 2026-04-30 20:27 | 50.18628 | 7.83001 | 34333 ft | 486 kts | 294° |
| 2026-04-30 20:28 | 50.23378 | 7.63489 | 34343 ft | 477 kts | 294° |
| 2026-04-30 20:30 | 50.29187 | 7.39390 | 34330 ft | 475 kts | 293° |
| 2026-04-30 20:31 | 50.36086 | 7.10426 | 34320 ft | 475 kts | 292° |
| 2026-04-30 20:32 | 50.41780 | 6.86224 | 34316 ft | 474 kts | 292° |
| 2026-04-30 20:33 | 50.45163 | 6.71712 | 34317 ft | 475 kts | 292° |
| 2026-04-30 20:34 | 50.48550 | 6.57084 | 34316 ft | 476 kts | 292° |
| 2026-04-30 20:35 | 50.51909 | 6.42479 | 34311 ft | 475 kts | 291° |
| 2026-04-30 20:35 | 50.55232 | 6.27930 | 33399 ft | 471 kts | 291° |
| 2026-04-30 20:36 | 50.56339 | 6.23060 | 32816 ft | 468 kts | 291° |
| 2026-04-30 20:36 | 50.57472 | 6.18064 | 32205 ft | 466 kts | 290° |
| 2026-04-30 20:36 | 50.59528 | 6.08964 | 31043 ft | 456 kts | 290° |
| 2026-04-30 20:37 | 50.60583 | 6.04284 | 30443 ft | 451 kts | 290° |
| 2026-04-30 20:37 | 50.61613 | 5.99699 | 29851 ft | 446 kts | 290° |
| 2026-04-30 20:37 | 50.62637 | 5.95137 | 29264 ft | 443 kts | 290° |
| 2026-04-30 20:37 | 50.63657 | 5.90578 | 28681 ft | 440 kts | 290° |
| 2026-04-30 20:38 | 50.64671 | 5.86051 | 28095 ft | 437 kts | 291° |
| 2026-04-30 20:38 | 50.65901 | 5.81715 | 27508 ft | 433 kts | 298° |
| 2026-04-30 20:38 | 50.67256 | 5.77549 | 26934 ft | 430 kts | 298° |
| 2026-04-30 20:39 | 50.69952 | 5.69196 | 25800 ft | 424 kts | 298° |
| 2026-04-30 20:39 | 50.71266 | 5.65114 | 25243 ft | 421 kts | 298° |
| 2026-04-30 20:39 | 50.72588 | 5.60996 | 24686 ft | 418 kts | 298° |
| 2026-04-30 20:40 | 50.75177 | 5.52909 | 23586 ft | 412 kts | 298° |
| 2026-04-30 20:40 | 50.76445 | 5.48934 | 23055 ft | 408 kts | 298° |
| 2026-04-30 20:40 | 50.77713 | 5.44955 | 22520 ft | 406 kts | 298° |
| 2026-04-30 20:41 | 50.80224 | 5.37055 | 21439 ft | 401 kts | 298° |
| 2026-04-30 20:41 | 50.81483 | 5.33080 | 20903 ft | 398 kts | 297° |
| 2026-04-30 20:41 | 50.82706 | 5.29215 | 20391 ft | 397 kts | 297° |
| 2026-04-30 20:41 | 50.83933 | 5.25331 | 19867 ft | 394 kts | 297° |
| 2026-04-30 20:42 | 50.85139 | 5.21506 | 19357 ft | 392 kts | 297° |
| 2026-04-30 20:42 | 50.86351 | 5.17655 | 18837 ft | 389 kts | 297° |
| 2026-04-30 20:42 | 50.87859 | 5.09577 | 17813 ft | 384 kts | 274° |
| 2026-04-30 20:43 | 50.88039 | 5.05397 | 17238 ft | 383 kts | 274° |
| 2026-04-30 20:43 | 50.88224 | 5.01218 | 16779 ft | 377 kts | 274° |
| 2026-04-30 20:43 | 50.88404 | 4.97130 | 16253 ft | 376 kts | 274° |
| 2026-04-30 20:44 | 50.88761 | 4.88935 | 15266 ft | 370 kts | 274° |
| 2026-04-30 20:44 | 50.88934 | 4.84910 | 14797 ft | 366 kts | 274° |
| 2026-04-30 20:44 | 50.89276 | 4.76886 | 13778 ft | 362 kts | 273° |
| 2026-04-30 20:45 | 50.89605 | 4.69042 | 12869 ft | 356 kts | 273° |
| 2026-04-30 20:45 | 50.89765 | 4.65163 | 12400 ft | 349 kts | 273° |
| 2026-04-30 20:45 | 50.89921 | 4.61385 | 11943 ft | 342 kts | 273° |
| 2026-04-30 20:46 | 50.90532 | 4.50465 | 10615 ft | 326 kts | 277° |
| 2026-04-30 20:46 | 50.90850 | 4.46933 | 10182 ft | 322 kts | 277° |
| 2026-04-30 20:47 | 50.91463 | 4.40060 | 9331 ft | 313 kts | 277° |
| 2026-04-30 20:47 | 50.91765 | 4.36653 | 8931 ft | 309 kts | 277° |
| 2026-04-30 20:48 | 50.92353 | 4.29987 | 8115 ft | 301 kts | 276° |
| 2026-04-30 20:48 | 50.92643 | 4.26697 | 7714 ft | 298 kts | 276° |
| 2026-04-30 20:48 | 50.92922 | 4.23501 | 7328 ft | 296 kts | 276° |
| 2026-04-30 20:48 | 50.93205 | 4.20264 | 6928 ft | 291 kts | 276° |
| 2026-04-30 20:49 | 50.93302 | 4.17133 | 6550 ft | 284 kts | 260° |
| 2026-04-30 20:49 | 50.92717 | 4.14215 | 6149 ft | 274 kts | 236° |
| 2026-04-30 20:49 | 50.91545 | 4.11934 | 5750 ft | 265 kts | 216° |
| 2026-04-30 20:50 | 50.88650 | 4.08712 | 5040 ft | 245 kts | 192° |
| 2026-04-30 20:50 | 50.87011 | 4.08455 | 4668 ft | 230 kts | 167° |
| 2026-04-30 20:50 | 50.85524 | 4.09183 | 4145 ft | 229 kts | 153° |
| 2026-04-30 20:50 | 50.84087 | 4.10222 | 3789 ft | 223 kts | 152° |
| 2026-04-30 20:51 | 50.82725 | 4.11298 | 3478 ft | 215 kts | 143° |
| 2026-04-30 20:51 | 50.81397 | 4.15147 | 2997 ft | 200 kts | 93° |
| 2026-04-30 20:51 | 50.81685 | 4.17202 | 3019 ft | 191 kts | 75° |
| 2026-04-30 20:52 | 50.82224 | 4.19119 | 2997 ft | 191 kts | 73° |
| 2026-04-30 20:52 | 50.82773 | 4.21023 | 3003 ft | 190 kts | 73° |
| 2026-04-30 20:52 | 50.83847 | 4.24844 | 2989 ft | 190 kts | 72° |
| 2026-04-30 20:53 | 50.84393 | 4.26723 | 2778 ft | 187 kts | 72° |
| 2026-04-30 20:53 | 50.84921 | 4.28517 | 2550 ft | 174 kts | 72° |
| 2026-04-30 20:53 | 50.85416 | 4.30205 | 2313 ft | 165 kts | 73° |
| 2026-04-30 20:54 | 50.86335 | 4.33350 | 1899 ft | 146 kts | 73° |
| 2026-04-30 20:54 | 50.86740 | 4.34728 | 1707 ft | 131 kts | 74° |
| 2026-04-30 20:54 | 50.87107 | 4.35989 | 1545 ft | 126 kts | 73° |
| 2026-04-30 20:55 | 50.87826 | 4.38509 | 1139 ft | 126 kts | 72° |
| 2026-04-30 20:55 | 50.88200 | 4.39762 | 983 ft | 127 kts | 70° |
| 2026-04-30 20:55 | 50.88582 | 4.41035 | 822 ft | 128 kts | 70° |
| 2026-04-30 20:56 | 50.89331 | 4.43607 | 528 ft | 128 kts | 69° |
| 2026-04-30 20:56 | 50.89702 | 4.44926 | 389 ft | 130 kts | 69° |
| 2026-04-30 20:56 | 50.90404 | 4.47368 | 192 ft | 86 kts | 64° |
| 2026-04-30 20:57 | 50.90569 | 4.47924 | 192 ft | 39 kts | 63° |
| 2026-04-30 20:57 | 50.90648 | 4.48195 | 192 ft | 14 kts | 68° |
| 2026-04-30 20:57 | 50.90652 | 4.48306 | 192 ft | 11 kts | 110° |
| 2026-04-30 20:58 | 50.90570 | 4.48530 | 192 ft | 11 kts | 121° |
| 2026-04-30 20:58 | 50.90525 | 4.48583 | 192 ft | 10 kts | 187° |
| 2026-04-30 20:58 | 50.90474 | 4.48478 | 192 ft | 15 kts | 246° |
| 2026-04-30 20:58 | 50.90421 | 4.48302 | 192 ft | 20 kts | 246° |
| 2026-04-30 20:59 | 50.90281 | 4.47813 | 192 ft | 28 kts | 245° |
| 2026-04-30 20:59 | 50.90208 | 4.47565 | 192 ft | 19 kts | 244° |
| 2026-04-30 21:00 | 50.90094 | 4.47524 | 192 ft | 14 kts | 156° |
| 2026-04-30 21:00 | 50.89955 | 4.47588 | 192 ft | 9 kts | 217° |
| 2026-04-30 21:01 | 50.89888 | 4.47373 | 192 ft | 6 kts | 243° |
| 2026-04-30 21:01 | 50.89848 | 4.47349 | 192 ft | 8 kts | 155° |
| 2026-04-30 21:01 | 50.89789 | 4.47432 | 192 ft | 6 kts | 73° |
| 2026-04-30 21:02 | 50.89806 | 4.47433 | 192 ft | 9 kts | 234° |
| 2026-04-30 21:02 | 50.89770 | 4.47349 | 192 ft | 4 kts | 238° |
| 2026-04-30 21:02 | 50.89746 | 4.47332 | 192 ft | 6 kts | 158° |
| 2026-04-30 21:02 | 50.89745 | 4.47379 | 192 ft | 7 kts | 61° |
| 2026-04-30 21:03 | 50.89749 | 4.47392 | 192 ft | 0 kts | 63° |